sensor_id;sensor_type;location;lat;lon;timestamp;P1;durP1;ratioP1;P2;durP2;ratioP2
15061;SDS011;7630;50.306;8.566;2023-07-29T00:02:51;10.13;;;9.53;;
15061;SDS011;7630;50.306;8.566;2023-07-29T00:06:57;11.13;;;10.33;;
15061;SDS011;7630;50.306;8.566;2023-07-29T00:15:28;8.93;;;8.40;;
15061;SDS011;7630;50.306;8.566;2023-07-29T00:19:34;10.43;;;9.73;;
15061;SDS011;7630;50.306;8.566;2023-07-29T00:28:45;10.40;;;9.70;;
15061;SDS011;7630;50.306;8.566;2023-07-29T00:32:46;10.90;;;10.10;;
15061;SDS011;7630;50.306;8.566;2023-07-29T00:41:11;9.00;;;8.50;;
15061;SDS011;7630;50.306;8.566;2023-07-29T00:45:33;9.80;;;9.10;;
15061;SDS011;7630;50.306;8.566;2023-07-29T00:49:45;8.40;;;7.83;;
15061;SDS011;7630;50.306;8.566;2023-07-29T00:54:09;7.97;;;7.27;;
15061;SDS011;7630;50.306;8.566;2023-07-29T00:58:19;7.83;;;7.13;;
15061;SDS011;7630;50.306;8.566;2023-07-29T01:02:23;7.60;;;6.93;;
15061;SDS011;7630;50.306;8.566;2023-07-29T01:06:35;5.90;;;5.60;;
15061;SDS011;7630;50.306;8.566;2023-07-29T01:24:11;6.20;;;5.50;;
15061;SDS011;7630;50.306;8.566;2023-07-29T01:41:13;9.60;;;9.00;;
15061;SDS011;7630;50.306;8.566;2023-07-29T01:58:43;8.97;;;8.37;;
15061;SDS011;7630;50.306;8.566;2023-07-29T02:03:00;6.77;;;6.37;;
15061;SDS011;7630;50.306;8.566;2023-07-29T02:07:01;8.70;;;8.10;;
15061;SDS011;7630;50.306;8.566;2023-07-29T02:11:25;9.27;;;8.57;;
15061;SDS011;7630;50.306;8.566;2023-07-29T02:15:34;8.10;;;7.50;;
15061;SDS011;7630;50.306;8.566;2023-07-29T02:19:41;9.30;;;8.60;;
15061;SDS011;7630;50.306;8.566;2023-07-29T02:23:51;11.63;;;10.73;;
15061;SDS011;7630;50.306;8.566;2023-07-29T02:27:52;12.27;;;11.33;;
15061;SDS011;7630;50.306;8.566;2023-07-29T02:36:42;18.13;;;16.70;;
15061;SDS011;7630;50.306;8.566;2023-07-29T02:40:52;16.40;;;15.03;;
15061;SDS011;7630;50.306;8.566;2023-07-29T02:49:07;18.30;;;16.43;;
15061;SDS011;7630;50.306;8.566;2023-07-29T02:57:44;16.23;;;14.83;;
15061;SDS011;7630;50.306;8.566;2023-07-29T03:01:41;17.10;;;15.57;;
15061;SDS011;7630;50.306;8.566;2023-07-29T03:10:31;17.83;;;16.17;;
15061;SDS011;7630;50.306;8.566;2023-07-29T03:14:47;17.77;;;16.03;;
15061;SDS011;7630;50.306;8.566;2023-07-29T03:19:07;19.40;;;17.50;;
15061;SDS011;7630;50.306;8.566;2023-07-29T03:23:23;19.23;;;17.30;;
15061;SDS011;7630;50.306;8.566;2023-07-29T03:27:30;17.00;;;15.50;;
15061;SDS011;7630;50.306;8.566;2023-07-29T03:31:41;17.03;;;15.43;;
15061;SDS011;7630;50.306;8.566;2023-07-29T03:40:26;16.30;;;14.70;;
15061;SDS011;7630;50.306;8.566;2023-07-29T03:44:30;16.37;;;14.87;;
15061;SDS011;7630;50.306;8.566;2023-07-29T03:53:34;13.80;;;12.50;;
15061;SDS011;7630;50.306;8.566;2023-07-29T04:01:53;13.43;;;12.33;;
15061;SDS011;7630;50.306;8.566;2023-07-29T04:06:00;12.37;;;11.17;;
15061;SDS011;7630;50.306;8.566;2023-07-29T04:10:10;11.93;;;10.93;;
15061;SDS011;7630;50.306;8.566;2023-07-29T04:14:14;11.87;;;10.97;;
15061;SDS011;7630;50.306;8.566;2023-07-29T04:18:35;10.67;;;9.77;;
15061;SDS011;7630;50.306;8.566;2023-07-29T04:23:02;13.03;;;11.77;;
15061;SDS011;7630;50.306;8.566;2023-07-29T04:27:03;12.50;;;11.50;;
15061;SDS011;7630;50.306;8.566;2023-07-29T04:35:36;15.80;;;14.50;;
15061;SDS011;7630;50.306;8.566;2023-07-29T04:39:49;14.53;;;13.40;;
15061;SDS011;7630;50.306;8.566;2023-07-29T04:43:52;14.07;;;12.97;;
15061;SDS011;7630;50.306;8.566;2023-07-29T04:47:59;14.80;;;13.63;;
15061;SDS011;7630;50.306;8.566;2023-07-29T04:52:00;12.63;;;11.63;;
15061;SDS011;7630;50.306;8.566;2023-07-29T04:56:07;11.67;;;10.77;;
15061;SDS011;7630;50.306;8.566;2023-07-29T05:00:15;11.37;;;10.47;;
15061;SDS011;7630;50.306;8.566;2023-07-29T05:04:16;9.80;;;9.07;;
15061;SDS011;7630;50.306;8.566;2023-07-29T05:08:18;9.27;;;8.57;;
15061;SDS011;7630;50.306;8.566;2023-07-29T05:12:27;8.13;;;7.40;;
15061;SDS011;7630;50.306;8.566;2023-07-29T05:16:30;7.97;;;7.37;;
15061;SDS011;7630;50.306;8.566;2023-07-29T05:20:33;7.40;;;6.80;;
15061;SDS011;7630;50.306;8.566;2023-07-29T05:24:37;7.97;;;7.37;;
15061;SDS011;7630;50.306;8.566;2023-07-29T05:32:51;8.17;;;7.67;;
15061;SDS011;7630;50.306;8.566;2023-07-29T05:45:51;6.37;;;5.87;;
15061;SDS011;7630;50.306;8.566;2023-07-29T05:50:02;6.50;;;5.83;;
15061;SDS011;7630;50.306;8.566;2023-07-29T05:54:09;6.87;;;6.37;;
15061;SDS011;7630;50.306;8.566;2023-07-29T05:58:10;7.07;;;6.57;;
15061;SDS011;7630;50.306;8.566;2023-07-29T06:06:42;7.13;;;6.60;;
15061;SDS011;7630;50.306;8.566;2023-07-29T06:10:49;6.67;;;6.07;;
15061;SDS011;7630;50.306;8.566;2023-07-29T06:15:08;7.00;;;6.47;;
15061;SDS011;7630;50.306;8.566;2023-07-29T06:19:10;8.87;;;7.63;;
15061;SDS011;7630;50.306;8.566;2023-07-29T06:23:11;7.77;;;7.07;;
15061;SDS011;7630;50.306;8.566;2023-07-29T06:27:27;8.50;;;7.83;;
15061;SDS011;7630;50.306;8.566;2023-07-29T06:31:34;10.03;;;9.13;;
15061;SDS011;7630;50.306;8.566;2023-07-29T06:39:52;10.90;;;10.07;;
15061;SDS011;7630;50.306;8.566;2023-07-29T06:43:59;10.87;;;10.13;;
15061;SDS011;7630;50.306;8.566;2023-07-29T06:48:15;12.77;;;11.80;;
15061;SDS011;7630;50.306;8.566;2023-07-29T06:56:43;11.17;;;10.47;;
15061;SDS011;7630;50.306;8.566;2023-07-29T07:05:09;14.40;;;13.30;;
15061;SDS011;7630;50.306;8.566;2023-07-29T07:09:32;14.23;;;12.97;;
15061;SDS011;7630;50.306;8.566;2023-07-29T07:13:33;14.23;;;13.13;;
15061;SDS011;7630;50.306;8.566;2023-07-29T07:18:24;14.63;;;13.63;;
15061;SDS011;7630;50.306;8.566;2023-07-29T07:22:13;15.00;;;13.80;;
15061;SDS011;7630;50.306;8.566;2023-07-29T07:26:14;14.40;;;13.20;;
15061;SDS011;7630;50.306;8.566;2023-07-29T07:35:43;12.60;;;11.40;;
15061;SDS011;7630;50.306;8.566;2023-07-29T07:43:58;11.17;;;10.40;;
15061;SDS011;7630;50.306;8.566;2023-07-29T07:48:02;9.90;;;9.20;;
15061;SDS011;7630;50.306;8.566;2023-07-29T07:57:05;7.53;;;7.03;;
15061;SDS011;7630;50.306;8.566;2023-07-29T08:01:07;6.70;;;6.20;;
15061;SDS011;7630;50.306;8.566;2023-07-29T08:05:09;4.70;;;4.40;;
15061;SDS011;7630;50.306;8.566;2023-07-29T08:13:51;2.50;;;2.30;;
15061;SDS011;7630;50.306;8.566;2023-07-29T08:17:52;1.77;;;1.67;;
15061;SDS011;7630;50.306;8.566;2023-07-29T08:22:02;1.60;;;1.50;;
15061;SDS011;7630;50.306;8.566;2023-07-29T08:26:07;1.67;;;1.57;;
15061;SDS011;7630;50.306;8.566;2023-07-29T08:30:12;1.60;;;1.50;;
15061;SDS011;7630;50.306;8.566;2023-07-29T08:34:19;1.80;;;1.70;;
15061;SDS011;7630;50.306;8.566;2023-07-29T08:42:59;1.60;;;1.50;;
15061;SDS011;7630;50.306;8.566;2023-07-29T08:51:51;3.67;;;2.20;;
15061;SDS011;7630;50.306;8.566;2023-07-29T09:10:13;2.93;;;1.70;;
15061;SDS011;7630;50.306;8.566;2023-07-29T09:14:26;1.93;;;1.77;;
15061;SDS011;7630;50.306;8.566;2023-07-29T09:28:10;1.47;;;1.37;;
15061;SDS011;7630;50.306;8.566;2023-07-29T09:36:57;2.17;;;1.70;;
15061;SDS011;7630;50.306;8.566;2023-07-29T09:45:08;1.67;;;1.57;;
15061;SDS011;7630;50.306;8.566;2023-07-29T09:54:02;1.43;;;1.33;;
15061;SDS011;7630;50.306;8.566;2023-07-29T09:58:07;3.10;;;1.90;;
15061;SDS011;7630;50.306;8.566;2023-07-29T10:02:15;1.50;;;1.40;;
15061;SDS011;7630;50.306;8.566;2023-07-29T10:16:23;1.87;;;1.77;;
15061;SDS011;7630;50.306;8.566;2023-07-29T10:20:25;1.97;;;1.77;;
15061;SDS011;7630;50.306;8.566;2023-07-29T10:24:29;2.60;;;2.03;;
15061;SDS011;7630;50.306;8.566;2023-07-29T10:28:52;1.83;;;1.60;;
15061;SDS011;7630;50.306;8.566;2023-07-29T10:33:33;2.00;;;1.90;;
15061;SDS011;7630;50.306;8.566;2023-07-29T10:41:55;1.77;;;1.67;;
15061;SDS011;7630;50.306;8.566;2023-07-29T10:50:32;2.20;;;2.10;;
15061;SDS011;7630;50.306;8.566;2023-07-29T10:58:47;3.73;;;1.80;;
15061;SDS011;7630;50.306;8.566;2023-07-29T11:02:57;7.67;;;3.90;;
15061;SDS011;7630;50.306;8.566;2023-07-29T11:11:11;4.20;;;2.80;;
15061;SDS011;7630;50.306;8.566;2023-07-29T11:15:14;4.47;;;2.60;;
15061;SDS011;7630;50.306;8.566;2023-07-29T11:19:16;2.63;;;2.43;;
15061;SDS011;7630;50.306;8.566;2023-07-29T11:23:20;4.83;;;2.80;;
15061;SDS011;7630;50.306;8.566;2023-07-29T11:27:23;2.37;;;2.27;;
15061;SDS011;7630;50.306;8.566;2023-07-29T11:31:38;2.30;;;2.10;;
15061;SDS011;7630;50.306;8.566;2023-07-29T11:35:29;4.73;;;2.73;;
15061;SDS011;7630;50.306;8.566;2023-07-29T11:39:33;7.43;;;3.10;;
15061;SDS011;7630;50.306;8.566;2023-07-29T11:43:36;3.40;;;2.60;;
15061;SDS011;7630;50.306;8.566;2023-07-29T11:47:37;9.80;;;2.80;;
15061;SDS011;7630;50.306;8.566;2023-07-29T11:51:41;2.80;;;2.60;;
15061;SDS011;7630;50.306;8.566;2023-07-29T11:55:43;2.60;;;2.10;;
15061;SDS011;7630;50.306;8.566;2023-07-29T11:59:44;2.47;;;2.27;;
15061;SDS011;7630;50.306;8.566;2023-07-29T12:03:47;21.73;;;5.07;;
15061;SDS011;7630;50.306;8.566;2023-07-29T12:07:48;3.57;;;2.70;;
15061;SDS011;7630;50.306;8.566;2023-07-29T12:11:50;2.33;;;2.13;;
15061;SDS011;7630;50.306;8.566;2023-07-29T12:16:00;2.00;;;1.90;;
15061;SDS011;7630;50.306;8.566;2023-07-29T12:19:58;3.00;;;2.73;;
15061;SDS011;7630;50.306;8.566;2023-07-29T12:24:02;12.87;;;4.43;;
15061;SDS011;7630;50.306;8.566;2023-07-29T12:28:04;24.13;;;6.33;;
15061;SDS011;7630;50.306;8.566;2023-07-29T12:32:07;5.17;;;2.63;;
15061;SDS011;7630;50.306;8.566;2023-07-29T12:36:09;2.93;;;2.67;;
15061;SDS011;7630;50.306;8.566;2023-07-29T12:40:25;1.93;;;1.83;;
15061;SDS011;7630;50.306;8.566;2023-07-29T12:44:24;2.27;;;1.80;;
15061;SDS011;7630;50.306;8.566;2023-07-29T12:48:26;2.67;;;2.10;;
15061;SDS011;7630;50.306;8.566;2023-07-29T12:52:27;1.97;;;1.77;;
15061;SDS011;7630;50.306;8.566;2023-07-29T12:56:28;2.03;;;1.90;;
15061;SDS011;7630;50.306;8.566;2023-07-29T13:00:31;25.63;;;6.10;;
15061;SDS011;7630;50.306;8.566;2023-07-29T13:04:32;2.67;;;2.47;;
15061;SDS011;7630;50.306;8.566;2023-07-29T13:08:33;2.40;;;2.23;;
15061;SDS011;7630;50.306;8.566;2023-07-29T13:12:35;2.13;;;1.70;;
15061;SDS011;7630;50.306;8.566;2023-07-29T13:16:36;1.97;;;1.87;;
15061;SDS011;7630;50.306;8.566;2023-07-29T13:20:38;2.00;;;1.90;;
15061;SDS011;7630;50.306;8.566;2023-07-29T13:24:39;1.77;;;1.67;;
15061;SDS011;7630;50.306;8.566;2023-07-29T13:28:40;2.60;;;2.00;;
15061;SDS011;7630;50.306;8.566;2023-07-29T13:32:41;2.17;;;2.07;;
15061;SDS011;7630;50.306;8.566;2023-07-29T13:36:42;2.40;;;2.30;;
15061;SDS011;7630;50.306;8.566;2023-07-29T13:40:44;1.70;;;1.60;;
15061;SDS011;7630;50.306;8.566;2023-07-29T13:44:45;1.93;;;1.60;;
15061;SDS011;7630;50.306;8.566;2023-07-29T13:48:46;2.03;;;1.93;;
15061;SDS011;7630;50.306;8.566;2023-07-29T13:52:47;3.90;;;2.43;;
15061;SDS011;7630;50.306;8.566;2023-07-29T13:56:48;9.30;;;2.90;;
15061;SDS011;7630;50.306;8.566;2023-07-29T14:00:49;1.53;;;1.43;;
15061;SDS011;7630;50.306;8.566;2023-07-29T14:04:51;1.63;;;1.53;;
15061;SDS011;7630;50.306;8.566;2023-07-29T14:08:52;2.00;;;1.90;;
15061;SDS011;7630;50.306;8.566;2023-07-29T14:12:53;1.50;;;1.30;;
15061;SDS011;7630;50.306;8.566;2023-07-29T14:16:54;1.83;;;1.73;;
15061;SDS011;7630;50.306;8.566;2023-07-29T14:20:56;1.97;;;1.87;;
15061;SDS011;7630;50.306;8.566;2023-07-29T14:24:57;1.90;;;1.70;;
15061;SDS011;7630;50.306;8.566;2023-07-29T14:29:00;3.93;;;1.60;;
15061;SDS011;7630;50.306;8.566;2023-07-29T14:33:01;4.00;;;1.50;;
15061;SDS011;7630;50.306;8.566;2023-07-29T14:37:02;2.13;;;1.90;;
15061;SDS011;7630;50.306;8.566;2023-07-29T14:41:03;2.00;;;1.80;;
15061;SDS011;7630;50.306;8.566;2023-07-29T14:45:05;1.40;;;1.30;;
15061;SDS011;7630;50.306;8.566;2023-07-29T14:49:07;2.27;;;2.10;;
15061;SDS011;7630;50.306;8.566;2023-07-29T14:53:08;4.93;;;1.90;;
15061;SDS011;7630;50.306;8.566;2023-07-29T14:57:09;3.97;;;2.00;;
15061;SDS011;7630;50.306;8.566;2023-07-29T15:01:11;1.43;;;1.33;;
15061;SDS011;7630;50.306;8.566;2023-07-29T15:05:12;1.77;;;1.67;;
15061;SDS011;7630;50.306;8.566;2023-07-29T15:09:14;2.17;;;1.97;;
15061;SDS011;7630;50.306;8.566;2023-07-29T15:13:15;3.00;;;2.40;;
15061;SDS011;7630;50.306;8.566;2023-07-29T15:17:17;2.83;;;1.80;;
15061;SDS011;7630;50.306;8.566;2023-07-29T15:21:18;2.30;;;2.10;;
15061;SDS011;7630;50.306;8.566;2023-07-29T15:25:19;3.30;;;2.00;;
15061;SDS011;7630;50.306;8.566;2023-07-29T15:29:20;2.40;;;1.50;;
15061;SDS011;7630;50.306;8.566;2023-07-29T15:33:21;2.43;;;2.20;;
15061;SDS011;7630;50.306;8.566;2023-07-29T15:37:25;2.37;;;2.17;;
15061;SDS011;7630;50.306;8.566;2023-07-29T15:41:27;3.83;;;2.00;;
15061;SDS011;7630;50.306;8.566;2023-07-29T15:45:28;2.40;;;2.07;;
15061;SDS011;7630;50.306;8.566;2023-07-29T15:49:29;2.07;;;1.80;;
15061;SDS011;7630;50.306;8.566;2023-07-29T15:53:30;1.60;;;1.50;;
15061;SDS011;7630;50.306;8.566;2023-07-29T15:57:31;1.80;;;1.70;;
15061;SDS011;7630;50.306;8.566;2023-07-29T16:01:32;2.50;;;2.30;;
15061;SDS011;7630;50.306;8.566;2023-07-29T16:05:34;2.43;;;1.70;;
15061;SDS011;7630;50.306;8.566;2023-07-29T16:09:35;2.17;;;2.07;;
15061;SDS011;7630;50.306;8.566;2023-07-29T16:13:37;2.10;;;1.90;;
15061;SDS011;7630;50.306;8.566;2023-07-29T16:17:38;1.90;;;1.80;;
15061;SDS011;7630;50.306;8.566;2023-07-29T16:21:39;6.73;;;2.90;;
15061;SDS011;7630;50.306;8.566;2023-07-29T16:25:40;2.97;;;2.17;;
15061;SDS011;7630;50.306;8.566;2023-07-29T16:29:41;1.90;;;1.80;;
15061;SDS011;7630;50.306;8.566;2023-07-29T16:33:42;4.17;;;2.20;;
15061;SDS011;7630;50.306;8.566;2023-07-29T16:37:44;2.33;;;2.00;;
15061;SDS011;7630;50.306;8.566;2023-07-29T16:41:45;3.73;;;1.90;;
15061;SDS011;7630;50.306;8.566;2023-07-29T16:45:48;14.13;;;2.53;;
15061;SDS011;7630;50.306;8.566;2023-07-29T16:49:49;2.83;;;2.20;;
15061;SDS011;7630;50.306;8.566;2023-07-29T16:53:50;3.93;;;2.20;;
15061;SDS011;7630;50.306;8.566;2023-07-29T16:57:53;2.60;;;1.90;;
15061;SDS011;7630;50.306;8.566;2023-07-29T17:01:54;1.87;;;1.70;;
15061;SDS011;7630;50.306;8.566;2023-07-29T17:05:55;2.10;;;1.97;;
15061;SDS011;7630;50.306;8.566;2023-07-29T17:09:59;2.30;;;2.10;;
15061;SDS011;7630;50.306;8.566;2023-07-29T17:14:01;1.93;;;1.83;;
15061;SDS011;7630;50.306;8.566;2023-07-29T17:18:02;2.60;;;2.10;;
15061;SDS011;7630;50.306;8.566;2023-07-29T17:22:03;3.10;;;2.17;;
15061;SDS011;7630;50.306;8.566;2023-07-29T17:26:04;2.07;;;1.90;;
15061;SDS011;7630;50.306;8.566;2023-07-29T17:30:06;1.90;;;1.80;;
15061;SDS011;7630;50.306;8.566;2023-07-29T17:34:08;3.10;;;1.97;;
15061;SDS011;7630;50.306;8.566;2023-07-29T17:38:09;2.13;;;1.97;;
15061;SDS011;7630;50.306;8.566;2023-07-29T17:42:12;3.03;;;2.60;;
15061;SDS011;7630;50.306;8.566;2023-07-29T17:46:13;2.20;;;2.10;;
15061;SDS011;7630;50.306;8.566;2023-07-29T17:50:17;2.83;;;2.00;;
15061;SDS011;7630;50.306;8.566;2023-07-29T17:54:20;1.70;;;1.60;;
15061;SDS011;7630;50.306;8.566;2023-07-29T17:58:21;2.00;;;1.87;;
15061;SDS011;7630;50.306;8.566;2023-07-29T18:02:22;2.93;;;2.73;;
15061;SDS011;7630;50.306;8.566;2023-07-29T18:06:23;2.60;;;1.80;;
15061;SDS011;7630;50.306;8.566;2023-07-29T18:10:24;2.00;;;1.90;;
15061;SDS011;7630;50.306;8.566;2023-07-29T18:14:26;2.50;;;2.30;;
15061;SDS011;7630;50.306;8.566;2023-07-29T18:18:28;4.60;;;2.37;;
15061;SDS011;7630;50.306;8.566;2023-07-29T18:22:30;3.70;;;1.90;;
15061;SDS011;7630;50.306;8.566;2023-07-29T18:26:31;2.80;;;2.20;;
15061;SDS011;7630;50.306;8.566;2023-07-29T18:30:32;2.07;;;1.73;;
15061;SDS011;7630;50.306;8.566;2023-07-29T18:34:33;2.70;;;2.07;;
15061;SDS011;7630;50.306;8.566;2023-07-29T18:38:34;3.50;;;2.27;;
15061;SDS011;7630;50.306;8.566;2023-07-29T18:42:35;3.60;;;2.20;;
15061;SDS011;7630;50.306;8.566;2023-07-29T18:46:36;2.30;;;2.20;;
15061;SDS011;7630;50.306;8.566;2023-07-29T18:50:38;2.37;;;2.20;;
15061;SDS011;7630;50.306;8.566;2023-07-29T18:54:39;2.20;;;2.07;;
15061;SDS011;7630;50.306;8.566;2023-07-29T18:58:41;2.00;;;1.90;;
15061;SDS011;7630;50.306;8.566;2023-07-29T19:02:42;2.97;;;1.93;;
15061;SDS011;7630;50.306;8.566;2023-07-29T19:06:45;2.97;;;2.07;;
15061;SDS011;7630;50.306;8.566;2023-07-29T19:10:49;3.30;;;2.53;;
15061;SDS011;7630;50.306;8.566;2023-07-29T19:14:50;2.33;;;2.13;;
15061;SDS011;7630;50.306;8.566;2023-07-29T19:18:51;2.60;;;2.40;;
15061;SDS011;7630;50.306;8.566;2023-07-29T19:22:52;3.53;;;2.00;;
15061;SDS011;7630;50.306;8.566;2023-07-29T19:26:53;3.50;;;1.90;;
15061;SDS011;7630;50.306;8.566;2023-07-29T19:30:57;3.33;;;3.03;;
15061;SDS011;7630;50.306;8.566;2023-07-29T19:34:58;3.17;;;2.90;;
15061;SDS011;7630;50.306;8.566;2023-07-29T19:39:00;2.90;;;2.70;;
15061;SDS011;7630;50.306;8.566;2023-07-29T19:43:03;3.60;;;3.40;;
15061;SDS011;7630;50.306;8.566;2023-07-29T19:47:04;3.70;;;2.60;;
15061;SDS011;7630;50.306;8.566;2023-07-29T19:51:05;3.33;;;3.03;;
15061;SDS011;7630;50.306;8.566;2023-07-29T19:55:07;3.30;;;3.10;;
15061;SDS011;7630;50.306;8.566;2023-07-29T19:59:09;4.00;;;3.80;;
15061;SDS011;7630;50.306;8.566;2023-07-29T20:03:10;3.57;;;3.33;;
15061;SDS011;7630;50.306;8.566;2023-07-29T20:07:12;4.70;;;3.83;;
15061;SDS011;7630;50.306;8.566;2023-07-29T20:11:13;3.90;;;3.60;;
15061;SDS011;7630;50.306;8.566;2023-07-29T20:15:15;3.47;;;3.27;;
15061;SDS011;7630;50.306;8.566;2023-07-29T20:19:16;5.17;;;3.30;;
15061;SDS011;7630;50.306;8.566;2023-07-29T20:23:17;4.10;;;3.70;;
15061;SDS011;7630;50.306;8.566;2023-07-29T20:27:18;4.27;;;3.87;;
15061;SDS011;7630;50.306;8.566;2023-07-29T20:31:19;4.13;;;3.83;;
15061;SDS011;7630;50.306;8.566;2023-07-29T20:35:21;3.87;;;3.57;;
15061;SDS011;7630;50.306;8.566;2023-07-29T20:39:23;4.13;;;3.83;;
15061;SDS011;7630;50.306;8.566;2023-07-29T20:43:25;3.83;;;3.63;;
15061;SDS011;7630;50.306;8.566;2023-07-29T20:47:26;4.50;;;3.40;;
15061;SDS011;7630;50.306;8.566;2023-07-29T20:51:27;4.43;;;4.13;;
15061;SDS011;7630;50.306;8.566;2023-07-29T20:55:28;3.73;;;3.37;;
15061;SDS011;7630;50.306;8.566;2023-07-29T20:59:29;3.33;;;2.90;;
15061;SDS011;7630;50.306;8.566;2023-07-29T21:03:30;7.20;;;3.47;;
15061;SDS011;7630;50.306;8.566;2023-07-29T21:07:31;4.07;;;3.67;;
15061;SDS011;7630;50.306;8.566;2023-07-29T21:11:33;4.27;;;3.93;;
15061;SDS011;7630;50.306;8.566;2023-07-29T21:15:34;3.43;;;3.13;;
15061;SDS011;7630;50.306;8.566;2023-07-29T21:19:35;3.03;;;2.73;;
15061;SDS011;7630;50.306;8.566;2023-07-29T21:23:36;3.50;;;3.27;;
15061;SDS011;7630;50.306;8.566;2023-07-29T21:27:37;3.27;;;2.70;;
15061;SDS011;7630;50.306;8.566;2023-07-29T21:31:38;3.27;;;3.07;;
15061;SDS011;7630;50.306;8.566;2023-07-29T21:35:40;2.53;;;2.27;;
15061;SDS011;7630;50.306;8.566;2023-07-29T21:39:41;3.20;;;2.90;;
15061;SDS011;7630;50.306;8.566;2023-07-29T21:43:42;2.80;;;2.60;;
15061;SDS011;7630;50.306;8.566;2023-07-29T21:47:43;2.60;;;2.40;;
15061;SDS011;7630;50.306;8.566;2023-07-29T21:51:45;2.07;;;1.87;;
15061;SDS011;7630;50.306;8.566;2023-07-29T21:55:46;2.00;;;1.90;;
15061;SDS011;7630;50.306;8.566;2023-07-29T21:59:47;2.97;;;2.67;;
15061;SDS011;7630;50.306;8.566;2023-07-29T22:03:49;2.57;;;2.30;;
15061;SDS011;7630;50.306;8.566;2023-07-29T22:07:50;1.87;;;1.77;;
15061;SDS011;7630;50.306;8.566;2023-07-29T22:11:51;1.70;;;1.60;;
15061;SDS011;7630;50.306;8.566;2023-07-29T22:15:53;2.40;;;2.20;;
15061;SDS011;7630;50.306;8.566;2023-07-29T22:19:54;2.17;;;2.00;;
15061;SDS011;7630;50.306;8.566;2023-07-29T22:23:55;1.80;;;1.70;;
15061;SDS011;7630;50.306;8.566;2023-07-29T22:27:58;1.93;;;1.83;;
15061;SDS011;7630;50.306;8.566;2023-07-29T22:31:59;1.87;;;1.77;;
15061;SDS011;7630;50.306;8.566;2023-07-29T22:36:00;1.60;;;1.50;;
15061;SDS011;7630;50.306;8.566;2023-07-29T22:40:03;1.60;;;1.50;;
15061;SDS011;7630;50.306;8.566;2023-07-29T22:44:05;1.73;;;1.63;;
15061;SDS011;7630;50.306;8.566;2023-07-29T22:48:06;1.63;;;1.53;;
15061;SDS011;7630;50.306;8.566;2023-07-29T22:52:07;1.80;;;1.70;;
15061;SDS011;7630;50.306;8.566;2023-07-29T22:56:08;2.37;;;2.17;;
15061;SDS011;7630;50.306;8.566;2023-07-29T23:00:10;2.00;;;1.90;;
15061;SDS011;7630;50.306;8.566;2023-07-29T23:04:11;3.37;;;1.80;;
15061;SDS011;7630;50.306;8.566;2023-07-29T23:08:13;2.20;;;2.10;;
15061;SDS011;7630;50.306;8.566;2023-07-29T23:12:14;2.70;;;1.80;;
15061;SDS011;7630;50.306;8.566;2023-07-29T23:16:15;2.80;;;1.73;;
15061;SDS011;7630;50.306;8.566;2023-07-29T23:20:16;2.10;;;2.00;;
15061;SDS011;7630;50.306;8.566;2023-07-29T23:24:17;2.53;;;2.33;;
15061;SDS011;7630;50.306;8.566;2023-07-29T23:28:19;2.10;;;2.00;;
15061;SDS011;7630;50.306;8.566;2023-07-29T23:32:20;1.83;;;1.73;;
15061;SDS011;7630;50.306;8.566;2023-07-29T23:36:21;4.40;;;2.20;;
15061;SDS011;7630;50.306;8.566;2023-07-29T23:40:22;2.43;;;2.23;;
15061;SDS011;7630;50.306;8.566;2023-07-29T23:44:24;2.70;;;2.60;;
15061;SDS011;7630;50.306;8.566;2023-07-29T23:48:25;3.00;;;2.67;;
15061;SDS011;7630;50.306;8.566;2023-07-29T23:52:26;2.03;;;1.93;;
15061;SDS011;7630;50.306;8.566;2023-07-29T23:56:27;2.43;;;2.00;;
